Time;durP1;ratioP1;P1;durP2;ratioP2;P2;SDS_P1;SDS_P2;PMS_P1;PMS_P2;Temp;Humidity;BMP_temperature;BMP_pressure;BME280_temperature;BME280_humidity;BME280_pressure;Samples;Min_cycle;Max_cycle;Signal;HPM_P1;HPM_P2
2023/01/28 00:00:56;;;;;;;9.20;8.90;;;1.00;99.90;;;;;;5025466;28;20235;-87
2023/01/28 00:03:24;;;;;;;9.20;8.90;;;1.00;99.90;;;;;;5019927;28;20263;-87
2023/01/28 00:05:54;;;;;;;9.37;9.07;;;1.00;99.90;;;;;;5027626;28;20227;-85
2023/01/28 00:08:23;;;;;;;9.23;8.93;;;1.10;99.90;;;;;;5020165;28;20242;-87
2023/01/28 00:10:51;;;;;;;9.17;8.90;;;1.00;99.90;;;;;;5020056;28;20232;-86
2023/01/28 00:13:21;;;;;;;9.00;8.80;;;1.00;99.90;;;;;;5019593;28;20323;-86
2023/01/28 00:16:08;;;;;;;9.40;9.10;;;1.00;99.90;;;;;;5020825;28;20232;-87
2023/01/28 00:18:39;;;;;;;9.37;9.07;;;1.10;99.90;;;;;;5014216;28;20279;-87
2023/01/28 00:21:14;;;;;;;9.17;8.87;;;1.00;99.90;;;;;;5021313;28;20216;-86
2023/01/28 00:23:47;;;;;;;9.00;8.80;;;1.00;99.90;;;;;;5041908;28;20239;-86
2023/01/28 00:26:17;;;;;;;9.10;8.80;;;1.00;99.90;;;;;;5041775;28;20232;-86
2023/01/28 00:28:45;;;;;;;9.40;9.10;;;1.00;99.90;;;;;;5041057;28;20258;-85
2023/01/28 00:31:23;;;;;;;9.07;8.80;;;1.00;99.90;;;;;;5041969;28;20231;-84
2023/01/28 00:33:53;;;;;;;9.50;9.20;;;1.10;99.90;;;;;;5030323;28;20402;-84
2023/01/28 00:36:22;;;;;;;9.33;9.03;;;1.10;99.90;;;;;;5039834;28;20236;-84
2023/01/28 06:40:24;;;;;;;9.50;9.20;;;1.40;99.90;;;;;;4880539;23;20362;-83
2023/01/28 06:42:54;;;;;;;9.50;9.20;;;1.40;99.90;;;;;;4946017;29;20251;-83
2023/01/28 06:45:21;;;;;;;9.60;9.30;;;1.30;99.90;;;;;;4949214;28;20234;-84
2023/01/28 06:47:51;;;;;;;9.83;9.53;;;1.30;99.90;;;;;;4959549;28;20240;-84
2023/01/28 06:50:21;;;;;;;9.80;9.50;;;1.30;99.90;;;;;;4949119;28;20226;-83
2023/01/28 06:52:50;;;;;;;9.80;9.50;;;1.30;99.90;;;;;;4947513;29;20235;-84
2023/01/28 06:55:21;;;;;;;9.80;9.50;;;1.30;99.90;;;;;;4947508;29;20258;-84
2023/01/28 06:57:49;;;;;;;9.77;9.47;;;1.40;99.90;;;;;;4948156;29;20251;-84
2023/01/28 07:00:18;;;;;;;9.80;9.50;;;1.30;99.90;;;;;;4947792;29;20302;-83
2023/01/28 07:02:46;;;;;;;9.60;9.30;;;1.40;99.90;;;;;;4935785;29;20239;-83
2023/01/28 07:07:56;;;;;;;9.80;9.50;;;1.40;99.90;;;;;;4948228;28;20262;-83
2023/01/28 07:10:27;;;;;;;9.90;9.60;;;1.40;99.90;;;;;;4948316;29;20259;-84
2023/01/28 07:12:55;;;;;;;9.80;9.50;;;1.40;99.90;;;;;;4949062;29;20235;-83
2023/01/28 07:15:25;;;;;;;9.60;9.30;;;1.40;99.90;;;;;;4948752;29;20239;-84
2023/01/28 07:17:55;;;;;;;9.83;9.53;;;1.40;99.90;;;;;;4949161;29;20227;-84
2023/01/28 07:20:25;;;;;;;10.10;9.80;;;1.40;99.90;;;;;;4948746;29;20235;-84
2023/01/28 07:22:53;;;;;;;9.93;9.63;;;1.40;99.90;;;;;;4944074;28;20245;-84
2023/01/28 07:25:24;;;;;;;10.00;9.70;;;1.40;99.90;;;;;;4940093;29;20235;-84
2023/01/28 07:27:54;;;;;;;10.07;9.77;;;1.30;99.90;;;;;;4951775;29;20219;-84
2023/01/28 07:30:24;;;;;;;10.00;9.70;;;1.20;99.90;;;;;;4953411;29;20259;-83
2023/01/28 07:33:02;;;;;;;9.90;9.60;;;1.20;99.90;;;;;;4952705;29;20245;-84
2023/01/28 07:35:31;;;;;;;9.90;9.60;;;1.20;99.90;;;;;;4950385;28;20241;-84
2023/01/28 07:38:02;;;;;;;9.90;9.60;;;1.20;99.90;;;;;;4948730;28;20317;-84
2023/01/28 07:40:31;;;;;;;10.10;9.80;;;1.30;99.90;;;;;;4947480;28;20272;-83
2023/01/28 07:42:59;;;;;;;9.90;9.60;;;1.20;99.90;;;;;;4948263;29;20267;-83
2023/01/28 07:45:29;;;;;;;10.00;9.70;;;1.20;99.90;;;;;;4947806;29;20292;-83
2023/01/28 07:47:58;;;;;;;9.83;9.53;;;1.20;99.90;;;;;;4948493;29;20239;-84
2023/01/28 07:50:32;;;;;;;9.83;9.53;;;1.20;99.90;;;;;;4948361;29;20291;-84
2023/01/28 07:53:03;;;;;;;9.80;9.50;;;1.30;99.90;;;;;;4954846;29;20271;-83
2023/01/28 07:55:41;;;;;;;9.70;9.40;;;1.30;99.90;;;;;;4956150;29;20294;-84
2023/01/28 07:58:11;;;;;;;9.70;9.40;;;1.30;99.90;;;;;;4954054;28;20226;-83
2023/01/28 08:00:40;;;;;;;9.80;9.50;;;1.30;99.90;;;;;;4941582;29;20232;-83
2023/01/28 08:03:13;;;;;;;9.73;9.43;;;1.30;99.90;;;;;;4948705;29;20243;-84
2023/01/28 08:05:50;;;;;;;9.93;9.63;;;1.30;99.90;;;;;;4950594;29;20239;-84
2023/01/28 08:08:18;;;;;;;9.80;9.50;;;1.30;99.90;;;;;;4950916;28;20245;-84
2023/01/28 08:10:48;;;;;;;9.67;9.37;;;1.30;99.90;;;;;;4949985;29;20234;-84
2023/01/28 08:13:17;;;;;;;9.40;9.10;;;1.30;99.90;;;;;;4949347;29;20255;-84
2023/01/28 08:15:46;;;;;;;9.57;9.27;;;1.30;99.90;;;;;;4948107;29;20287;-84
2023/01/28 08:18:16;;;;;;;9.90;9.60;;;1.50;99.90;;;;;;4948797;29;20246;-84
2023/01/28 08:20:46;;;;;;;9.57;9.27;;;1.60;99.90;;;;;;4948463;29;20239;-83
2023/01/28 08:23:16;;;;;;;9.80;9.50;;;1.60;99.90;;;;;;4938146;29;20231;-84
2023/01/28 08:25:46;;;;;;;9.90;9.60;;;1.60;99.90;;;;;;4928039;29;20235;-84
2023/01/28 08:28:14;;;;;;;9.90;9.60;;;1.60;99.90;;;;;;4928345;29;20223;-84
2023/01/28 08:30:43;;;;;;;9.60;9.30;;;1.50;99.90;;;;;;4927343;29;20319;-84
2023/01/28 08:33:14;;;;;;;10.40;10.10;;;1.50;99.90;;;;;;4928164;29;20520;-83
2023/01/28 08:35:44;;;;;;;9.87;9.57;;;1.50;99.90;;;;;;4927824;29;20270;-84
2023/01/28 08:38:14;;;;;;;9.80;9.50;;;1.50;99.90;;;;;;4927410;29;20257;-84
2023/01/28 08:40:41;;;;;;;10.00;9.70;;;1.60;99.90;;;;;;4925265;29;20334;-82
2023/01/28 08:43:17;;;;;;;9.70;9.40;;;1.60;99.90;;;;;;4926814;29;20327;-82
2023/01/28 08:45:45;;;;;;;9.70;9.40;;;1.60;99.90;;;;;;4933305;29;20238;-83
2023/01/28 08:48:18;;;;;;;9.73;9.43;;;1.50;99.90;;;;;;4946161;29;20245;-83
2023/01/28 08:50:47;;;;;;;9.70;9.40;;;1.50;99.90;;;;;;4947233;29;20239;-83
2023/01/28 08:53:17;;;;;;;9.50;9.20;;;1.60;99.90;;;;;;4948241;29;20239;-83
2023/01/28 08:55:47;;;;;;;9.63;9.33;;;1.60;99.90;;;;;;4948058;29;20302;-83
2023/01/28 08:58:27;;;;;;;10.30;10.00;;;1.70;99.90;;;;;;4946919;29;20322;-84
2023/01/28 09:00:55;;;;;;;9.50;9.20;;;1.80;99.90;;;;;;4944752;29;20317;-84
2023/01/28 09:03:24;;;;;;;9.40;9.10;;;2.00;99.90;;;;;;4944625;29;20239;-85
2023/01/28 09:05:54;;;;;;;9.83;9.53;;;2.40;99.90;;;;;;4946120;29;20238;-86
2023/01/28 09:08:23;;;;;;;9.70;9.40;;;2.40;99.90;;;;;;4946424;28;20239;-85
2023/01/28 09:10:56;;;;;;;9.90;9.60;;;2.30;99.90;;;;;;4942803;29;20231;-86
2023/01/28 09:13:25;;;;;;;9.80;9.50;;;2.10;99.90;;;;;;4944498;29;20231;-86
2023/01/28 09:15:53;;;;;;;9.70;9.40;;;2.10;99.90;;;;;;4943716;29;20230;-85
2023/01/28 09:18:21;;;;;;;9.60;9.30;;;2.10;99.90;;;;;;4945959;29;20318;-85
2023/01/28 09:20:51;;;;;;;9.70;9.40;;;2.10;99.90;;;;;;4950758;28;20239;-86
2023/01/28 09:23:20;;;;;;;9.60;9.30;;;2.00;99.90;;;;;;4943911;29;20230;-85
2023/01/28 09:25:50;;;;;;;9.50;9.20;;;2.00;99.90;;;;;;4943139;29;20235;-85
2023/01/28 09:28:19;;;;;;;9.60;9.30;;;2.00;99.90;;;;;;4944333;29;20226;-85
2023/01/28 09:30:58;;;;;;;9.60;9.30;;;2.10;99.90;;;;;;4942641;29;20239;-85
2023/01/28 09:33:36;;;;;;;9.97;9.67;;;2.20;99.90;;;;;;4943555;29;20227;-86
2023/01/28 09:36:06;;;;;;;9.67;9.37;;;2.20;99.90;;;;;;4943019;29;20259;-86
2023/01/28 09:38:35;;;;;;;9.90;9.60;;;2.10;99.90;;;;;;4943169;29;20290;-86
2023/01/28 09:41:13;;;;;;;10.00;9.70;;;2.10;99.90;;;;;;4942178;29;20333;-86
2023/01/28 09:44:10;;;;;;;9.83;9.53;;;2.00;99.90;;;;;;4959295;29;20226;-87
2023/01/28 09:46:47;;;;;;;9.93;9.63;;;2.10;99.90;;;;;;4947704;29;20334;-86
2023/01/28 09:49:26;;;;;;;9.90;9.60;;;1.90;99.90;;;;;;4943799;29;20282;-86
2023/01/28 09:51:55;;;;;;;9.57;9.27;;;1.90;99.90;;;;;;4943854;29;20230;-86
2023/01/28 09:54:36;;;;;;;9.90;9.60;;;1.90;99.90;;;;;;4944395;29;20243;-87
2023/01/28 09:57:12;;;;;;;9.90;9.60;;;1.90;99.90;;;;;;4947242;29;20294;-88
2023/01/28 09:59:40;;;;;;;10.10;9.80;;;2.00;99.90;;;;;;4951945;29;20290;-86
2023/01/28 10:03:04;;;;;;;9.80;9.50;;;2.00;99.90;;;;;;4954883;29;20222;-87
2023/01/28 10:05:49;;;;;;;9.70;9.40;;;2.00;99.90;;;;;;4933419;28;20258;-86
2023/01/28 10:08:37;;;;;;;9.80;9.50;;;1.90;99.90;;;;;;4950905;29;20231;-86
2023/01/28 10:11:15;;;;;;;9.80;9.50;;;1.90;99.90;;;;;;4950935;29;20277;-85
2023/01/28 10:13:55;;;;;;;9.70;9.40;;;2.00;99.90;;;;;;4946857;29;20235;-85
2023/01/28 10:16:33;;;;;;;9.93;9.63;;;2.00;99.90;;;;;;4946807;29;20298;-86
2023/01/28 10:19:11;;;;;;;9.47;9.17;;;2.00;99.90;;;;;;4947890;29;20258;-86
2023/01/28 10:21:59;;;;;;;9.73;9.43;;;2.10;99.90;;;;;;4947250;29;20250;-86
2023/01/28 10:24:37;;;;;;;9.73;9.43;;;2.20;99.90;;;;;;4949033;28;20322;-86
2023/01/28 10:27:17;;;;;;;9.60;9.30;;;2.20;99.90;;;;;;4949389;29;20242;-86
2023/01/28 10:29:51;;;;;;;9.67;9.37;;;2.10;99.90;;;;;;4950334;29;20239;-86
2023/01/28 10:32:32;;;;;;;9.60;9.30;;;2.10;99.90;;;;;;4947640;29;20294;-86
2023/01/28 10:35:02;;;;;;;9.50;9.20;;;2.20;99.90;;;;;;4930604;29;20291;-86
2023/01/28 10:37:39;;;;;;;9.40;9.10;;;2.20;99.90;;;;;;4914315;29;20243;-86
2023/01/28 10:40:18;;;;;;;9.50;9.20;;;2.20;99.90;;;;;;4934984;29;20238;-87
2023/01/28 10:42:46;;;;;;;9.43;9.13;;;2.20;99.90;;;;;;4947287;28;20262;-86
2023/01/28 10:45:24;;;;;;;9.60;9.30;;;2.20;99.90;;;;;;4946850;29;20252;-87
2023/01/28 10:48:00;;;;;;;9.60;9.30;;;2.30;99.90;;;;;;4946760;29;20230;-85
2023/01/28 10:50:34;;;;;;;9.60;9.30;;;2.40;99.90;;;;;;4946642;29;20242;-85
2023/01/28 10:53:11;;;;;;;9.50;9.20;;;2.40;99.90;;;;;;4944097;28;20326;-86
2023/01/28 10:55:58;;;;;;;9.50;9.20;;;2.50;99.90;;;;;;4941324;29;20278;-86
2023/01/28 10:58:29;;;;;;;9.50;9.20;;;2.50;99.90;;;;;;4943090;28;20318;-87
2023/01/28 11:01:05;;;;;;;9.27;8.97;;;2.60;99.90;;;;;;4941194;28;20247;-86
2023/01/28 11:03:34;;;;;;;9.40;9.10;;;2.60;99.90;;;;;;4926913;29;20231;-85
2023/01/28 11:06:05;;;;;;;9.50;9.20;;;2.60;99.90;;;;;;4916548;29;20240;-86
2023/01/28 11:08:44;;;;;;;9.50;9.20;;;2.70;99.90;;;;;;4918713;29;20227;-87
2023/01/28 11:14:00;;;;;;;9.60;9.30;;;2.70;99.90;;;;;;4946600;29;20700;-88
2023/01/28 11:16:46;;;;;;;9.30;9.00;;;2.70;99.90;;;;;;4954151;29;20227;-87
2023/01/28 11:19:24;;;;;;;9.33;9.03;;;2.70;99.90;;;;;;4962837;28;20219;-86
2023/01/28 11:22:04;;;;;;;9.50;9.20;;;2.80;99.90;;;;;;4961535;28;20306;-85
2023/01/28 11:24:44;;;;;;;9.37;9.07;;;2.80;99.90;;;;;;4961707;29;20269;-88
2023/01/28 11:30:24;;;;;;;9.67;9.37;;;2.70;99.90;;;;;;4963678;28;20237;-85
2023/01/28 11:33:04;;;;;;;9.40;9.10;;;2.80;99.90;;;;;;4964307;28;20219;-86
2023/01/28 11:35:32;;;;;;;9.40;9.10;;;2.70;99.90;;;;;;4963746;28;20215;-86
2023/01/28 11:38:27;;;;;;;9.50;9.20;;;2.70;99.90;;;;;;4963157;28;20264;-89
2023/01/28 11:41:07;;;;;;;9.43;9.13;;;2.70;99.90;;;;;;4960240;29;20290;-88
2023/01/28 11:43:46;;;;;;;9.57;9.27;;;2.60;99.90;;;;;;4962617;29;20247;-87
2023/01/28 11:50:18;;;;;;;9.67;9.37;;;2.60;99.90;;;;;;4961697;28;20208;-89
2023/01/28 11:53:27;;;;;;;9.80;9.50;;;2.50;99.90;;;;;;4960872;28;20226;-87
2023/01/28 11:56:22;;;;;;;9.70;9.40;;;2.50;99.90;;;;;;4936555;29;20291;-87
2023/01/28 11:59:05;;;;;;;9.70;9.40;;;2.60;99.90;;;;;;4940044;28;20231;-85
2023/01/28 12:01:47;;;;;;;9.60;9.30;;;2.60;99.90;;;;;;4929091;29;20260;-85
2023/01/28 12:04:24;;;;;;;9.50;9.20;;;2.50;99.90;;;;;;4940644;29;20235;-84
2023/01/28 12:07:26;;;;;;;9.40;9.10;;;2.50;99.90;;;;;;4946311;29;20265;-84
2023/01/28 12:09:58;;;;;;;9.40;9.10;;;2.60;99.90;;;;;;4944442;29;20265;-84
2023/01/28 12:13:10;;;;;;;9.20;8.90;;;2.50;99.90;;;;;;4949597;29;20236;-83
2023/01/28 12:16:24;;;;;;;9.50;9.20;;;2.40;99.90;;;;;;4944314;29;20246;-86
2023/01/28 12:19:47;;;;;;;9.70;9.40;;;2.40;99.90;;;;;;4882942;29;20305;-85
2023/01/28 12:22:51;;;;;;;9.60;9.30;;;2.40;99.90;;;;;;4943106;28;20237;-87
2023/01/28 12:25:40;;;;;;;9.47;9.17;;;2.40;99.90;;;;;;4937307;29;20254;-86
2023/01/28 12:28:29;;;;;;;9.50;9.20;;;2.40;99.90;;;;;;4943754;29;20230;-86
2023/01/28 12:31:14;;;;;;;9.67;9.37;;;2.40;99.90;;;;;;4942560;29;20245;-86
2023/01/28 12:34:09;;;;;;;9.50;9.20;;;2.40;99.90;;;;;;4943106;29;20372;-86
2023/01/28 12:36:56;;;;;;;9.47;9.17;;;2.20;99.90;;;;;;4940055;29;20227;-87
2023/01/28 12:39:43;;;;;;;9.60;9.30;;;2.20;99.90;;;;;;4938819;29;20235;-85
2023/01/28 16:01:48;;;;;;;9.20;8.90;;;0.80;99.90;;;;;;6218310;22;20178;-88
2023/01/28 18:44:30;;;;;;;9.17;8.87;;;-0.10;99.90;;;;;;6200457;23;20212;-87
2023/01/28 18:47:09;;;;;;;9.40;9.10;;;-0.20;99.90;;;;;;6205698;23;20184;-86
2023/01/28 18:49:45;;;;;;;9.40;9.10;;;-0.20;99.90;;;;;;6211087;23;20198;-87
2023/01/28 18:52:19;;;;;;;9.30;9.00;;;-0.20;99.90;;;;;;6200496;23;20206;-86
2023/01/28 18:54:53;;;;;;;9.20;8.90;;;-0.20;99.90;;;;;;6214337;23;20219;-88
2023/01/28 18:57:22;;;;;;;9.13;8.83;;;-0.20;99.90;;;;;;6200681;23;20194;-88
2023/01/28 19:02:47;;;;;;;9.20;8.90;;;-0.30;99.90;;;;;;6197205;23;20210;-87
2023/01/28 19:05:17;;;;;;;9.40;9.10;;;-0.30;99.90;;;;;;6201702;23;20226;-88
2023/01/28 19:07:49;;;;;;;9.10;8.80;;;-0.30;99.90;;;;;;6197924;23;20203;-88
2023/01/28 19:10:18;;;;;;;9.40;9.10;;;-0.30;99.90;;;;;;6199917;23;20280;-86
2023/01/28 19:12:48;;;;;;;9.40;9.10;;;-0.40;99.90;;;;;;6196786;23;20199;-88
2023/01/28 19:15:23;;;;;;;9.40;9.10;;;-0.30;99.90;;;;;;6196597;23;20209;-87
2023/01/28 19:20:40;;;;;;;9.50;9.20;;;-0.40;99.90;;;;;;6196883;23;20249;-87
2023/01/28 19:23:10;;;;;;;9.37;9.07;;;-0.40;99.90;;;;;;6196316;23;20290;-88
2023/01/28 19:28:35;;;;;;;9.60;9.30;;;-0.50;99.90;;;;;;6195773;23;20202;-87
2023/01/28 19:31:08;;;;;;;9.13;8.83;;;-0.50;99.90;;;;;;6196473;23;20257;-87
2023/01/28 19:33:36;;;;;;;9.50;9.20;;;-0.60;99.90;;;;;;6197306;23;20207;-87
2023/01/28 19:36:04;;;;;;;9.10;8.80;;;-0.70;99.90;;;;;;6197359;23;20203;-88
2023/01/28 19:38:41;;;;;;;8.80;8.60;;;-0.70;99.90;;;;;;6197045;23;20345;-86
2023/01/28 19:41:12;;;;;;;8.97;8.77;;;-0.70;99.90;;;;;;6200800;23;20195;-88
2023/01/28 19:43:43;;;;;;;9.23;8.93;;;-0.60;99.90;;;;;;6198737;23;20210;-88
2023/01/28 19:49:05;;;;;;;9.10;8.87;;;-0.50;99.90;;;;;;6195844;23;20202;-86
2023/01/28 19:51:57;;;;;;;9.10;8.83;;;-0.60;99.90;;;;;;6199121;23;20256;-88
2023/01/28 19:54:24;;;;;;;9.50;9.20;;;-0.60;99.90;;;;;;6174422;23;20202;-87
2023/01/28 19:59:59;;;;;;;8.90;8.70;;;-0.60;99.90;;;;;;6197973;23;20236;-86
2023/01/28 20:02:35;;;;;;;8.90;8.70;;;-0.60;99.90;;;;;;6198545;23;20207;-86
2023/01/28 20:05:12;;;;;;;9.00;8.80;;;-0.60;99.90;;;;;;6198930;23;20290;-85
2023/01/28 20:10:31;;;;;;;9.00;8.77;;;-0.60;99.90;;;;;;6198169;23;20199;-86
2023/01/28 20:13:09;;;;;;;9.23;8.93;;;-0.70;99.90;;;;;;6199478;23;20195;-86
2023/01/28 20:15:45;;;;;;;9.13;8.87;;;-0.70;99.90;;;;;;6197952;23;20202;-86
2023/01/28 20:21:10;;;;;;;9.30;9.00;;;-0.70;99.90;;;;;;6196491;23;20221;-86
2023/01/28 20:23:48;;;;;;;9.10;8.80;;;-0.80;99.90;;;;;;6199297;23;20215;-86
2023/01/28 20:29:31;;;;;;;9.00;8.80;;;-0.70;99.90;;;;;;6183049;23;20215;-86
2023/01/28 20:32:10;;;;;;;9.00;8.77;;;-0.70;99.90;;;;;;6198901;23;20199;-87
2023/01/28 20:34:43;;;;;;;9.10;8.80;;;-0.70;99.90;;;;;;6199406;23;20266;-86
2023/01/28 20:37:19;;;;;;;9.30;9.00;;;-0.70;99.90;;;;;;6199258;23;20217;-87
2023/01/28 20:40:07;;;;;;;8.93;8.73;;;-0.60;99.90;;;;;;6199526;23;20187;-86
2023/01/28 20:42:35;;;;;;;9.23;8.93;;;-0.60;99.90;;;;;;6193648;23;20261;-85
2023/01/28 20:45:09;;;;;;;9.10;8.80;;;-0.70;99.90;;;;;;6197926;23;20258;-86
2023/01/28 20:47:39;;;;;;;9.33;9.03;;;-0.80;99.90;;;;;;6198245;23;20290;-86
2023/01/28 20:50:24;;;;;;;9.30;9.00;;;-0.80;99.90;;;;;;6198358;23;20693;-86
2023/01/28 20:53:03;;;;;;;9.27;8.97;;;-0.70;99.90;;;;;;6198243;23;20207;-87
2023/01/28 20:55:32;;;;;;;8.97;8.77;;;-0.70;99.90;;;;;;6198939;23;20194;-88
2023/01/28 20:58:13;;;;;;;9.10;8.80;;;-0.70;99.90;;;;;;6199082;23;20201;-87
2023/01/28 21:00:55;;;;;;;;;;;;;;;;;;;;;
2023/01/28 21:03:26;;;;;;;8.80;8.60;;;-0.80;99.90;;;;;;6198479;23;20215;-87
2023/01/28 21:06:03;;;;;;;8.73;8.53;;;-0.80;99.90;;;;;;6198650;23;20195;-86
2023/01/28 21:08:33;;;;;;;8.33;8.13;;;-0.80;99.90;;;;;;6207928;23;20195;-86
2023/01/28 21:11:09;;;;;;;8.60;8.40;;;-0.90;99.90;;;;;;6201995;23;20195;-86
2023/01/28 21:13:48;;;;;;;8.90;8.70;;;-0.80;99.90;;;;;;6198725;23;20207;-87
2023/01/28 21:16:17;;;;;;;8.47;8.27;;;-0.80;99.90;;;;;;6198066;23;20195;-87
2023/01/28 21:18:49;;;;;;;8.67;8.47;;;-0.90;99.90;;;;;;6197932;23;20207;-87
2023/01/28 21:21:26;;;;;;;8.93;8.73;;;-0.90;99.90;;;;;;6197971;23;20820;-87
2023/01/28 21:24:12;;;;;;;8.43;8.23;;;-0.80;99.90;;;;;;6197673;23;20207;-87
2023/01/28 21:27:28;;;;;;;8.90;8.70;;;-0.80;99.90;;;;;;6198316;23;20199;-87
2023/01/28 21:32:42;;;;;;;8.70;8.50;;;-0.90;99.90;;;;;;6197947;23;20202;-86
2023/01/28 21:37:56;;;;;;;8.70;8.50;;;-1.00;99.90;;;;;;6193271;23;20231;-86
2023/01/28 21:43:12;;;;;;;8.47;8.27;;;-1.00;99.90;;;;;;6197272;23;20210;-86
2023/01/28 21:45:46;;;;;;;8.70;8.50;;;-1.00;99.90;;;;;;6195673;23;20202;-83
2023/01/28 21:48:19;;;;;;;8.90;8.70;;;-1.00;99.90;;;;;;6196768;23;20227;-86
2023/01/28 21:53:39;;;;;;;8.93;8.73;;;-0.90;99.90;;;;;;6207533;23;20258;-86
2023/01/28 21:56:11;;;;;;;8.93;8.73;;;-0.90;99.90;;;;;;6208065;23;20205;-86
2023/01/28 22:02:17;;;;;;;8.70;8.50;;;-1.10;99.90;;;;;;6198037;23;20195;-85
2023/01/28 22:04:48;;;;;;;8.70;8.50;;;-1.00;99.90;;;;;;6196776;23;20202;-84
2023/01/28 22:07:28;;;;;;;8.53;8.33;;;-1.00;99.90;;;;;;6197324;23;20194;-85
2023/01/28 22:10:02;;;;;;;8.90;8.70;;;-0.90;99.90;;;;;;6196783;23;20246;-84
2023/01/28 22:12:33;;;;;;;8.43;8.23;;;-1.00;99.90;;;;;;6197859;23;20280;-84
2023/01/28 22:15:13;;;;;;;8.47;8.27;;;-1.10;99.90;;;;;;6197212;23;20195;-84
2023/01/28 22:17:49;;;;;;;8.70;8.50;;;-1.10;99.90;;;;;;6196520;23;20197;-85
2023/01/28 22:20:20;;;;;;;8.90;8.70;;;-1.10;99.90;;;;;;6195656;23;20276;-85
2023/01/28 22:23:15;;;;;;;9.10;8.83;;;-1.20;99.90;;;;;;6196324;23;20202;-87
2023/01/28 22:25:46;;;;;;;8.90;8.70;;;-1.20;99.90;;;;;;6197252;23;20203;-85
2023/01/28 22:28:15;;;;;;;9.03;8.83;;;-1.10;99.90;;;;;;6199787;23;20220;-84
2023/01/28 22:30:43;;;;;;;8.60;8.40;;;-1.00;99.90;;;;;;6195983;23;20366;-85
2023/01/28 22:33:15;;;;;;;8.90;8.70;;;-1.00;99.90;;;;;;6195878;23;20209;-84
2023/01/28 22:35:45;;;;;;;9.00;8.80;;;-1.00;99.90;;;;;;6196087;23;20295;-86
2023/01/28 22:38:14;;;;;;;8.87;8.67;;;-0.90;99.90;;;;;;6196842;23;20259;-85
2023/01/28 22:41:01;;;;;;;8.70;8.50;;;-1.00;99.90;;;;;;6196608;23;20207;-84
2023/01/28 22:43:47;;;;;;;8.70;8.50;;;-1.10;99.90;;;;;;6197223;23;20728;-88
2023/01/28 22:46:37;;;;;;;8.80;8.60;;;-1.20;99.90;;;;;;6197284;23;20251;-86
2023/01/28 22:49:10;;;;;;;9.20;8.90;;;-1.30;99.90;;;;;;6202225;23;20222;-85
2023/01/28 22:54:46;;;;;;;8.90;8.70;;;-1.40;99.90;;;;;;6196942;23;20210;-86
2023/01/28 22:57:27;;;;;;;8.90;8.70;;;-1.30;99.90;;;;;;6189541;23;20225;-87
2023/01/28 23:00:31;;;;;;;8.77;8.57;;;-1.30;99.90;;;;;;6197601;23;20188;-86
2023/01/28 23:03:08;;;;;;;8.87;8.67;;;-1.30;99.90;;;;;;6197760;23;20274;-85
2023/01/28 23:06:03;;;;;;;9.20;8.90;;;-1.30;99.90;;;;;;6197015;23;20287;-85
2023/01/28 23:08:42;;;;;;;8.80;8.60;;;-1.30;99.90;;;;;;6197507;23;20207;-85
2023/01/28 23:26:03;;;;;;;9.33;9.03;;;-1.20;99.90;;;;;;6203064;23;20234;-85
2023/01/28 23:28:58;;;;;;;;;;;;;;;;;;;;;
2023/01/28 23:32:00;;;;;;;9.07;8.80;;;-1.30;99.90;;;;;;6196259;23;20210;-86
2023/01/28 23:34:43;;;;;;;9.23;8.93;;;-1.20;99.90;;;;;;6193251;23;20193;-85
2023/01/28 23:37:16;;;;;;;8.80;8.60;;;-1.30;99.90;;;;;;6198095;23;20208;-85
2023/01/28 23:39:55;;;;;;;8.90;8.70;;;-1.20;99.90;;;;;;6199041;23;20194;-84
2023/01/28 23:42:33;;;;;;;9.20;8.90;;;-1.20;99.90;;;;;;6198982;23;20203;-85
2023/01/28 23:45:03;;;;;;;9.30;9.00;;;-1.20;99.90;;;;;;6202961;23;20207;-86
2023/01/28 23:47:41;;;;;;;9.30;9.00;;;-1.30;99.90;;;;;;6199478;23;20268;-85
2023/01/28 23:50:21;;;;;;;9.10;8.80;;;-1.30;99.90;;;;;;6198989;23;20205;-85
2023/01/28 23:53:11;;;;;;;9.27;8.97;;;-1.30;99.90;;;;;;6199660;23;20255;-85
2023/01/28 23:55:43;;;;;;;8.97;8.73;;;-1.30;99.90;;;;;;6198712;23;20195;-85
2023/01/28 23:58:15;;;;;;;8.93;8.73;;;-1.20;99.90;;;;;;6197937;23;20202;-86
